Buoy 41936

sailwx.info

Track history (hours):
 
Tides and Currents Weather Stations Pressure Air Temp Water Temp Dewpoint Dewpoint Depression Visibility Wind Speed Wind Dir Waves Ship Positions

Drifting buoy 41936

Last reported at 2016-May-03 08:00 UTC. Time now 2016-May-03 10:38 UTC.
Position N 29°17' W 064°10'.

Barometer 1019.0 mb

Date/timePositionNaut miles runAvg speedWind from/ knotsBaromVisibWave heightAir tempDewpointWater temp
2016-May-03 08:00N 29°17' W 064°10'0 0.2 1019.0
2016-May-03 07:00N 29°16' W 064°11'0 0.5 1018.9
2016-May-03 06:00N 29°16' W 064°10'0 0.0 1019.0
2016-May-03 02:00N 29°16' W 064°10'1 0.7 1021.3
2016-May-03 01:00N 29°17' W 064°10'1 0.7 1021.1
2016-May-03 00:00N 29°18' W 064°10'1 0.6 1020.7
2016-May-02 23:00N 29°17' W 064°09'0 0.2 1020.0
2016-May-02 22:00N 29°18' W 064°09'0 0.3 1019.4
2016-May-02 21:00N 29°18' W 064°09'1 0.3 1019.9
2016-May-02 19:00N 29°18' W 064°09'1 0.3 1019.5
2016-May-02 15:00N 29°20' W 064°08'0 0.2 1020.5
2016-May-02 14:00N 29°20' W 064°08'0 0.1 1020.6
2016-May-02 13:00N 29°19' W 064°08'0 0.3 1020.0
2016-May-02 12:00N 29°20' W 064°08'0 0.2 1020.0
2016-May-02 11:00N 29°20' W 064°08'1 0.3 1019.5
2016-May-02 09:00N 29°20' W 064°07'1 0.6 1018.2
2016-May-02 08:00N 29°20' W 064°06'0 0.0 1018.0
2016-May-02 07:00N 29°20' W 064°06'1 1.3 1018.2
2016-May-02 06:00N 29°20' W 064°05'1 1.2 1018.2
2016-May-02 05:00N 29°20' W 064°06'1 0.4 1018.7
2016-May-02 02:00N 29°20' W 064°05'1 0.1 1019.5
2016-May-01 22:00N 29°20' W 064°04'0 0.5 1017.3
2016-May-01 21:00N 29°20' W 064°05'1 0.6 1017.6
2016-May-01 20:00N 29°21' W 064°05'0 0.1 1017.6
2016-May-01 19:00N 29°21' W 064°05'0 0.1 1017.5
2016-May-01 17:00N 29°21' W 064°05'0 0.1 1017.8
2016-May-01 13:00N 29°21' W 064°04'1 0.5 1018.7
2016-May-01 11:00N 29°20' W 064°05'0 0.3 1017.8
2016-May-01 10:00N 29°20' W 064°04'1 0.5 1017.1
2016-May-01 09:00N 29°20' W 064°04'1 0.8 1016.6
2016-May-01 08:00N 29°19' W 064°05'2 1.1 1016.4
2016-May-01 06:00N 29°17' W 064°05'1 0.1 1016.2
2016-May-01 02:00N 29°17' W 064°04'0 0.4 1017.2
2016-May-01 01:00N 29°17' W 064°04'1 0.7 1017.0
2016-May-01 00:00N 29°17' W 064°04'0 0.1 1016.8
2016-Apr-30 22:00N 29°17' W 064°04'0 0.2 1016.1
2016-Apr-30 21:00N 29°18' W 064°04'2 0.5 1015.9
2016-Apr-30 18:00N 29°17' W 064°06'0 0.0 1016.2
2016-Apr-30 17:00N 29°17' W 064°06'1 0.5 1016.0
2016-Apr-30 15:00N 29°18' W 064°04'2 1.5 1016.9
2016-Apr-30 14:00N 29°17' W 064°03'0 0.0 1017.3
2016-Apr-30 13:00N 29°17' W 064°03'1 0.3 1017.1
2016-Apr-30 11:00N 29°16' W 064°03'0 0.4 1016.6
2016-Apr-30 10:00N 29°16' W 064°03'0 0.3 1016.0
2016-Apr-30 09:00N 29°16' W 064°03'0 0.4 1015.3
2016-Apr-30 08:00N 29°16' W 064°02'0 0.1 1015.6
2016-Apr-30 07:00N 29°16' W 064°02'3 3.0 1015.5
2016-Apr-30 06:00N 29°13' W 064°01'1 0.2 1015.2
2016-Apr-30 02:00N 29°14' W 064°00'1 1.3 1016.3
2016-Apr-30 01:00N 29°12' W 063°59'0 0.4 1016.6
2016-Apr-30 00:00N 29°13' W 063°59'1 1.2 1016.2
2016-Apr-29 23:00N 29°12' W 063°58'1 0.8 1015.6
2016-Apr-29 22:00N 29°11' W 063°57'0 0.4 1015.8
2016-Apr-29 21:00N 29°11' W 063°57'3 0.9 1015.8
2016-Apr-29 18:00N 29°10' W 063°59'15 0.9 1016.2
2016-Apr-29 02:00N 29°02' W 063°45'1 0.7 1018.4
2016-Apr-29 01:00N 29°01' W 063°44'2 2.1 1018.3
2016-Apr-29 00:00N 29°01' W 063°42'0 0.0 1018.2
2016-Apr-28 23:00N 29°01' W 063°42'3 0.7 1017.8
2016-Apr-28 18:00N 28°59' W 063°39'4 1.1 1018.2
2016-Apr-28 14:00N 28°57' W 063°34'5 1.4 1019.3
2016-Apr-28 10:00N 28°54' W 063°29'0 0.0 1017.6
2016-Apr-28 09:00N 28°54' W 063°29'0 0.0 1016.8
2016-Apr-28 08:00N 28°54' W 063°29'1 0.7 1016.7
2016-Apr-28 07:00N 28°53' W 063°29'14 1.3 1016.4
2016-Apr-27 20:00N 28°42' W 063°19'4 2.2 1016.7
2016-Apr-27 18:00N 28°39' W 063°16'0 0.0 1017.6
2016-Apr-27 13:00N 28°39' W 063°16'0 0.0 1017.4
2016-Apr-27 12:00N 28°39' W 063°16'5 0.5 1016.7
2016-Apr-27 02:00N 28°35' W 063°13'3 3.2 1016.3
2016-Apr-27 01:00N 28°35' W 063°09'2 0.4 1015.9
2016-Apr-26 19:00N 28°37' W 063°08'2 0.3 1015.1
2016-Apr-26 13:00N 28°38' W 063°06'1 0.3 1015.2
2016-Apr-26 10:00N 28°37' W 063°05'4 0.5 1013.9
2016-Apr-26 01:00N 28°37' W 062°60'5 4.6 1012.5
2016-Apr-26 00:00N 28°40' W 062°56'0 0.0 1012.1
2016-Apr-25 19:00N 28°40' W 062°56'3 0.4 1010.1
2016-Apr-25 13:00N 28°42' W 062°54'13 4.2 1009.7
2016-Apr-25 10:00N 28°31' W 062°48'15 0.7 1008.1
2016-Apr-24 12:00N 28°16' W 062°44'0 0.0 1013.7
2016-Apr-24 11:00N 28°16' W 062°44'0 0.0 1014.1
2016-Apr-23 23:00N 28°16' W 062°44'0 0.0 1017.1
2016-Apr-23 19:00N 28°16' W 062°44'5 0.9 1018.0
2016-Apr-23 14:00N 28°12' W 062°40'1 0.6 1020.2
2016-Apr-23 13:00N 28°12' W 062°40'2 1.2 1020.4
2016-Apr-23 11:00N 28°09' W 062°40'   1020.1
Track history (hours):
 
Tides and Currents Weather Stations Pressure Air Temp Water Temp Dewpoint Dewpoint Depression Visibility Wind Speed Wind Dir Waves Ship Positions

Drifting buoy 41936

Last reported at 2016-May-03 08:00 UTC. Time now 2016-May-03 10:38 UTC.
Position N 29°17' W 064°10'.

Barometer 1019.0 mb

Date/timePositionNaut miles runAvg speedWind from/ knotsBaromVisibWave heightAir tempDewpointWater temp
2016-May-03 08:00N 29°17' W 064°10'0 0.2 1019.0
2016-May-03 07:00N 29°16' W 064°11'0 0.5 1018.9
2016-May-03 06:00N 29°16' W 064°10'0 0.0 1019.0
2016-May-03 02:00N 29°16' W 064°10'1 0.7 1021.3
2016-May-03 01:00N 29°17' W 064°10'1 0.7 1021.1
2016-May-03 00:00N 29°18' W 064°10'1 0.6 1020.7
2016-May-02 23:00N 29°17' W 064°09'0 0.2 1020.0
2016-May-02 22:00N 29°18' W 064°09'0 0.3 1019.4
2016-May-02 21:00N 29°18' W 064°09'1 0.3 1019.9
2016-May-02 19:00N 29°18' W 064°09'1 0.3 1019.5
2016-May-02 15:00N 29°20' W 064°08'0 0.2 1020.5
2016-May-02 14:00N 29°20' W 064°08'0 0.1 1020.6
2016-May-02 13:00N 29°19' W 064°08'0 0.3 1020.0
2016-May-02 12:00N 29°20' W 064°08'0 0.2 1020.0
2016-May-02 11:00N 29°20' W 064°08'1 0.3 1019.5
2016-May-02 09:00N 29°20' W 064°07'1 0.6 1018.2
2016-May-02 08:00N 29°20' W 064°06'0 0.0 1018.0
2016-May-02 07:00N 29°20' W 064°06'1 1.3 1018.2
2016-May-02 06:00N 29°20' W 064°05'1 1.2 1018.2
2016-May-02 05:00N 29°20' W 064°06'1 0.4 1018.7
2016-May-02 02:00N 29°20' W 064°05'1 0.1 1019.5
2016-May-01 22:00N 29°20' W 064°04'0 0.5 1017.3
2016-May-01 21:00N 29°20' W 064°05'1 0.6 1017.6
2016-May-01 20:00N 29°21' W 064°05'0 0.1 1017.6
2016-May-01 19:00N 29°21' W 064°05'0 0.1 1017.5
2016-May-01 17:00N 29°21' W 064°05'0 0.1 1017.8
2016-May-01 13:00N 29°21' W 064°04'1 0.5 1018.7
2016-May-01 11:00N 29°20' W 064°05'0 0.3 1017.8
2016-May-01 10:00N 29°20' W 064°04'1 0.5 1017.1
2016-May-01 09:00N 29°20' W 064°04'1 0.8 1016.6
2016-May-01 08:00N 29°19' W 064°05'2 1.1 1016.4
2016-May-01 06:00N 29°17' W 064°05'1 0.1 1016.2
2016-May-01 02:00N 29°17' W 064°04'0 0.4 1017.2
2016-May-01 01:00N 29°17' W 064°04'1 0.7 1017.0
2016-May-01 00:00N 29°17' W 064°04'0 0.1 1016.8
2016-Apr-30 22:00N 29°17' W 064°04'0 0.2 1016.1
2016-Apr-30 21:00N 29°18' W 064°04'2 0.5 1015.9
2016-Apr-30 18:00N 29°17' W 064°06'0 0.0 1016.2
2016-Apr-30 17:00N 29°17' W 064°06'1 0.5 1016.0
2016-Apr-30 15:00N 29°18' W 064°04'2 1.5 1016.9
2016-Apr-30 14:00N 29°17' W 064°03'0 0.0 1017.3
2016-Apr-30 13:00N 29°17' W 064°03'1 0.3 1017.1
2016-Apr-30 11:00N 29°16' W 064°03'0 0.4 1016.6
2016-Apr-30 10:00N 29°16' W 064°03'0 0.3 1016.0
2016-Apr-30 09:00N 29°16' W 064°03'0 0.4 1015.3
2016-Apr-30 08:00N 29°16' W 064°02'0 0.1 1015.6
2016-Apr-30 07:00N 29°16' W 064°02'3 3.0 1015.5
2016-Apr-30 06:00N 29°13' W 064°01'1 0.2 1015.2
2016-Apr-30 02:00N 29°14' W 064°00'1 1.3 1016.3
2016-Apr-30 01:00N 29°12' W 063°59'0 0.4 1016.6
2016-Apr-30 00:00N 29°13' W 063°59'1 1.2 1016.2
2016-Apr-29 23:00N 29°12' W 063°58'1 0.8 1015.6
2016-Apr-29 22:00N 29°11' W 063°57'0 0.4 1015.8
2016-Apr-29 21:00N 29°11' W 063°57'3 0.9 1015.8
2016-Apr-29 18:00N 29°10' W 063°59'15 0.9 1016.2
2016-Apr-29 02:00N 29°02' W 063°45'1 0.7 1018.4
2016-Apr-29 01:00N 29°01' W 063°44'2 2.1 1018.3
2016-Apr-29 00:00N 29°01' W 063°42'0 0.0 1018.2
2016-Apr-28 23:00N 29°01' W 063°42'3 0.7 1017.8
2016-Apr-28 18:00N 28°59' W 063°39'4 1.1 1018.2
2016-Apr-28 14:00N 28°57' W 063°34'5 1.4 1019.3
2016-Apr-28 10:00N 28°54' W 063°29'0 0.0 1017.6
2016-Apr-28 09:00N 28°54' W 063°29'0 0.0 1016.8
2016-Apr-28 08:00N 28°54' W 063°29'1 0.7 1016.7
2016-Apr-28 07:00N 28°53' W 063°29'14 1.3 1016.4
2016-Apr-27 20:00N 28°42' W 063°19'4 2.2 1016.7
2016-Apr-27 18:00N 28°39' W 063°16'0 0.0 1017.6
2016-Apr-27 13:00N 28°39' W 063°16'0 0.0 1017.4
2016-Apr-27 12:00N 28°39' W 063°16'5 0.5 1016.7
2016-Apr-27 02:00N 28°35' W 063°13'3 3.2 1016.3
2016-Apr-27 01:00N 28°35' W 063°09'2 0.4 1015.9
2016-Apr-26 19:00N 28°37' W 063°08'2 0.3 1015.1
2016-Apr-26 13:00N 28°38' W 063°06'1 0.3 1015.2
2016-Apr-26 10:00N 28°37' W 063°05'4 0.5 1013.9
2016-Apr-26 01:00N 28°37' W 062°60'5 4.6 1012.5
2016-Apr-26 00:00N 28°40' W 062°56'0 0.0 1012.1
2016-Apr-25 19:00N 28°40' W 062°56'3 0.4 1010.1
2016-Apr-25 13:00N 28°42' W 062°54'13 4.2 1009.7
2016-Apr-25 10:00N 28°31' W 062°48'15 0.7 1008.1
2016-Apr-24 12:00N 28°16' W 062°44'0 0.0 1013.7
2016-Apr-24 11:00N 28°16' W 062°44'0 0.0 1014.1
2016-Apr-23 23:00N 28°16' W 062°44'0 0.0 1017.1
2016-Apr-23 19:00N 28°16' W 062°44'5 0.9 1018.0
2016-Apr-23 14:00N 28°12' W 062°40'1 0.6 1020.2
2016-Apr-23 13:00N 28°12' W 062°40'2 1.2 1020.4
2016-Apr-23 11:00N 28°09' W 062°40'   1020.1

Dump ship's entire track history